Weather at Blue Ridge Airport

Public forecast

Using degrees Fahrenheit for public forecast. Weather courtesy of forecast.io.

Current aviation weather report (METAR) for Blue Ridge Airport

Retrieved 2020/12/03 12:35 UTC (0 seconds ago):

KMTV 031235Z AUTO 00000KT 10SM CLR M06/M07 A3035 RMK AO2 T10641069

Closest aviation forecast (TAF) to Blue Ridge Airport

Closest forecast is Smith Reynolds Airport, 31.4 nm (58.2 km) SSW. Retrieved 2020/12/03 12:33 UTC (0 seconds ago):

TAF KINT 031131Z 0312/0412 VRB05KT P6SM SCT250